»·PEaware :: TPX819 KSBA-KLAS

TPX819 :: KSBA-KLAS

FLIGHT INFORMATION

Flight Status: Arrived
Operator: ATP Experience
More flights by this operator :: More flights under this callsign
Pilot: Erik S. (3779)
Aircraft: BOEING 737-300
(B733)
More flights by this aircraft type
Origin: KSBA Santa Barbara Mun
United States
Destination: KLAS McCarran Intl
United States
More flights between these airports :: More routes between these airports
Route: +MISHN2 NNAVY MISEN KEPEC6
File this flight plan on PilotEdge
Remarks:
Altitude:
(Current/Filed)
27,000ft
Speed:
(Current/Filed)
400kts
Departed: 02-Jan-18 05:10 PM
Arrived: 02-Jan-18 05:59 PM
Distance/Time
Traveled:
251nm/0:49
Distance/Time
To Go:
Arrived

Flight Plot

Page will automatically refresh every two minutes.

Flight plan parsing failed; only flown route is shown


Map Options




Map Legend


Flown Route
Filed Route
Departure Airport
Arrival Airport
Navaid (VOR, NDB)
Fix

Horizontal Profiles

Position Reports

Time Latitude Longitude Heading Altitude Ground
Speed
02-Jan-18 17:04 34.424574 -119.837057 124 20ft 0kts
02-Jan-18 17:05 34.424574 -119.837057 124 20ft 0kts
02-Jan-18 17:06 34.424574 -119.837057 124 20ft 0kts
02-Jan-18 17:07 34.424574 -119.837057 124 20ft 0kts
02-Jan-18 17:08 34.424574 -119.837057 124 20ft 0kts
02-Jan-18 17:09 34.424574 -119.837057 124 20ft 0kts
02-Jan-18 17:10 34.424574 -119.837057 124 20ft 0kts
02-Jan-18 17:11 34.424745 -119.837354 123 20ft 0kts
02-Jan-18 17:12 34.424563 -119.837791 14 20ft 0kts
02-Jan-18 17:13 34.425907 -119.838095 344 20ft 10kts
02-Jan-18 17:14 34.426873 -119.834731 46 20ft 10kts
02-Jan-18 17:15 34.427927 -119.835285 269 20ft 1kts
02-Jan-18 17:16 34.426960 -119.865473 265 658ft 170kts
02-Jan-18 17:17 34.416421 -119.920198 225 3370ft 192kts
02-Jan-18 17:18 34.356556 -119.937178 173 5411ft 260kts
02-Jan-18 17:19 34.299727 -119.880844 136 8577ft 275kts
02-Jan-18 17:20 34.243207 -119.812441 135 10596ft 321kts
02-Jan-18 17:21 34.200428 -119.720214 93 13133ft 340kts
02-Jan-18 17:22 34.196145 -119.605433 96 15544ft 351kts
02-Jan-18 17:23 34.197276 -119.486371 91 17640ft 366kts
02-Jan-18 17:24 34.202165 -119.365333 92 19458ft 379kts
02-Jan-18 17:25 34.206659 -119.245679 93 21018ft 391kts
02-Jan-18 17:26 34.211697 -119.112430 93 22507ft 405kts
02-Jan-18 17:27 34.235934 -118.976231 83 24414ft 411kts
02-Jan-18 17:28 34.262799 -118.843266 83 26023ft 413kts
02-Jan-18 17:29 34.289743 -118.708386 83 27144ft 423kts
02-Jan-18 17:30 34.318086 -118.564691 82 27079ft 459kts
02-Jan-18 17:31 34.348470 -118.409734 81 27078ft 488kts
02-Jan-18 17:32 34.379952 -118.248031 81 27143ft 501kts
02-Jan-18 17:33 34.411658 -118.083829 81 27228ft 500kts
02-Jan-18 17:34 34.460780 -117.925888 67 27217ft 510kts
02-Jan-18 17:35 34.521402 -117.771964 68 27223ft 508kts
02-Jan-18 17:36 34.581236 -117.617869 68 27252ft 508kts
02-Jan-18 17:37 34.640930 -117.462970 68 27257ft 509kts
02-Jan-18 17:38 34.700537 -117.307460 69 27258ft 508kts
02-Jan-18 17:39 34.759777 -117.152171 68 27257ft 508kts
02-Jan-18 17:40 34.818624 -116.997204 69 27249ft 501kts
02-Jan-18 17:41 34.875369 -116.847580 59 27245ft 486kts
02-Jan-18 17:42 34.933929 -116.701274 49 27247ft 476kts
02-Jan-18 17:43 35.008803 -116.570282 48 27272ft 455kts
02-Jan-18 17:44 35.077383 -116.448479 48 25415ft 424kts
02-Jan-18 17:45 35.150700 -116.343010 39 24242ft 404kts
02-Jan-18 17:46 35.229243 -116.244855 39 24259ft 406kts
02-Jan-18 17:47 35.305019 -116.149507 39 23434ft 368kts
02-Jan-18 17:48 35.376226 -116.059848 41 21048ft 362kts
02-Jan-18 17:49 35.443644 -115.974685 42 19072ft 353kts
02-Jan-18 17:50 35.509180 -115.891670 44 17164ft 345kts
02-Jan-18 17:51 35.574238 -115.809721 45 15317ft 342kts
02-Jan-18 17:52 35.638745 -115.727739 46 13487ft 328kts
02-Jan-18 17:53 35.697711 -115.652154 46 13045ft 298kts
02-Jan-18 17:54 35.755933 -115.581538 27 13013ft 295kts
02-Jan-18 17:55 35.837630 -115.571033 3 13030ft 298kts
02-Jan-18 17:56 35.920058 -115.566413 3 13021ft 297kts
02-Jan-18 17:57 35.985199 -115.520052 68 11926ft 288kts
02-Jan-18 17:58 36.013100 -115.432134 68 10967ft 265kts
02-Jan-18 17:59 36.014132 -115.344604 89 10518ft 264kts
02-Jan-18 18:00 36.020623 -115.252493 83 8191ft 273kts
02-Jan-18 18:01 36.029399 -115.163553 81 5300ft 251kts
02-Jan-18 18:02 36.038943 -115.087490 57 3720ft 194kts
02-Jan-18 18:03 36.072765 -115.095207 273 2661ft 143kts
02-Jan-18 18:04 36.073663 -115.140298 270 2148ft 89kts
02-Jan-18 18:05 36.075332 -115.151358 322 2148ft 14kts
02-Jan-18 18:06 36.077911 -115.149193 96 2148ft 28kts
02-Jan-18 18:07 36.077611 -115.138579 85 2148ft 19kts

Navigation Log

Ident Type
Flight plan parsing failed, navigation log unavailable